Flight Briefing for GRZ502

Departure Arrival
Juneau International Airport (PAJN)
Click to view FAA NOTAMS
Ted Stevens Anchorage International Airport (PANC)
Click to view FAA NOTAMS
Departure Time Arrival Time
N/A N/A
Aircraft Distance
B727-200F 496nm
Departure METAR Arrival METAR
PAJN 271053Z 11003KT 10SM CLR 09/07 A2996 RMK AO2 SLP146 T00890072 $ PANC 271053Z 15015G23KT 10SM FEW080 SCT110 SCT220 11/05 A2980 RMK AO2 PK WND 14031/1000 SLP092 T01110050
Suggested Route
CHLKT1 ALATY JOH WITTI4


View recent IFR Routes data
Notes



Charts and Procedures

Charts for PAJN
No chart available
Charts for PANC
No chart available

Windy.com Weather Map